createdAt,value
2023-01-11T00:01:27.245Z,4.97
2023-01-11T00:04:30.748Z,4.90
2023-01-11T00:07:34.663Z,4.18
2023-01-11T00:10:37.938Z,4.55
2023-01-11T00:13:41.143Z,5.90
2023-01-11T00:16:44.455Z,3.70
2023-01-11T00:19:47.264Z,4.35
2023-01-11T00:22:50.812Z,6.37
2023-01-11T00:25:53.412Z,2.87
2023-01-11T00:28:56.318Z,4.47
2023-01-11T00:31:59.181Z,5.10
2023-01-11T00:35:03.550Z,2.62
2023-01-11T00:38:06.426Z,5.40
2023-01-11T00:41:29.713Z,5.00
2023-01-11T00:44:51.199Z,2.62
2023-01-11T00:47:57.092Z,4.10
2023-01-11T00:50:59.952Z,3.08
2023-01-11T00:54:03.219Z,5.70
2023-01-11T00:57:07.517Z,3.70
2023-01-11T01:00:11.339Z,4.93
2023-01-11T01:03:15.549Z,4.35
2023-01-11T01:06:18.690Z,2.77
2023-01-11T01:09:23.002Z,3.37
2023-01-11T01:12:45.002Z,2.65
2023-01-11T01:15:47.973Z,1.87
2023-01-11T01:18:53.557Z,3.97
2023-01-11T01:21:58.998Z,4.50
2023-01-11T01:25:02.289Z,4.40
2023-01-11T01:28:05.306Z,4.12
2023-01-11T01:31:08.609Z,2.90
2023-01-11T01:34:12.502Z,2.62
2023-01-11T01:37:17.445Z,4.65
2023-01-11T01:40:23.026Z,7.85
2023-01-11T01:43:47.593Z,5.43
2023-01-11T01:46:50.736Z,3.35
2023-01-11T01:49:54.149Z,3.50
2023-01-11T01:53:02.448Z,4.32
2023-01-11T01:56:10.899Z,5.65
2023-01-11T01:59:15.813Z,6.95
2023-01-11T02:02:20.868Z,7.80
2023-01-11T02:05:24.150Z,6.10
2023-01-11T02:08:33.152Z,5.10
2023-01-11T02:11:43.379Z,4.62
2023-01-11T02:14:47.497Z,5.65
2023-01-11T02:17:50.966Z,8.48
2023-01-11T02:20:59.745Z,3.87
2023-01-11T02:24:21.817Z,4.12
2023-01-11T02:28:03.007Z,8.25
2023-01-11T02:31:19.692Z,10.70
2023-01-11T02:34:52.442Z,7.70
2023-01-11T02:38:16.258Z,7.00
2023-01-11T02:41:59.977Z,5.85
2023-01-11T02:45:11.571Z,6.75
2023-01-11T02:48:31.480Z,5.57
2023-01-11T02:51:45.107Z,5.28
2023-01-11T02:54:54.198Z,7.78
2023-01-11T02:57:59.945Z,5.12
2023-01-11T03:04:05.789Z,7.50
2023-01-11T03:07:12.075Z,5.90
2023-01-11T03:10:37.461Z,4.78
2023-01-11T03:14:05.373Z,5.00
2023-01-11T03:17:30.484Z,6.00
2023-01-11T03:20:42.783Z,7.57
2023-01-11T03:24:02.317Z,6.50
2023-01-11T03:27:12.204Z,6.07
2023-01-11T03:30:32.003Z,7.60
2023-01-11T03:33:44.667Z,5.43
2023-01-11T03:36:47.881Z,5.93
2023-01-11T03:40:04.206Z,5.68
2023-01-11T03:43:13.534Z,8.00
2023-01-11T03:46:21.222Z,5.90
2023-01-11T03:49:31.703Z,7.95
2023-01-11T03:52:38.509Z,6.40
2023-01-11T03:55:44.891Z,8.55
2023-01-11T03:58:47.808Z,7.75
2023-01-11T04:01:53.949Z,5.53
2023-01-11T04:04:57.107Z,8.75
2023-01-11T04:07:59.995Z,7.43
2023-01-11T04:11:06.177Z,7.20
2023-01-11T04:14:09.141Z,9.18
2023-01-11T04:17:12.310Z,7.60
2023-01-11T04:20:15.329Z,8.07
2023-01-11T04:23:20.012Z,8.13
2023-01-11T04:26:22.969Z,6.80
2023-01-11T04:29:27.340Z,7.70
2023-01-11T04:32:30.242Z,8.55
2023-01-11T04:35:33.420Z,8.30
2023-01-11T04:38:36.567Z,8.25
2023-01-11T04:41:58.771Z,11.40
2023-01-11T04:45:05.489Z,8.82
2023-01-11T04:48:08.749Z,10.93
2023-01-11T04:51:11.930Z,6.68
2023-01-11T04:54:16.865Z,6.62
2023-01-11T04:57:22.540Z,10.87
2023-01-11T05:00:25.719Z,8.15
2023-01-11T05:03:32.812Z,7.30
2023-01-11T05:06:36.083Z,8.52
2023-01-11T05:09:40.974Z,6.97
2023-01-11T05:16:09.529Z,9.23
2023-01-11T05:19:17.476Z,8.95
2023-01-11T05:22:23.163Z,8.00
2023-01-11T05:25:26.650Z,8.57
2023-01-11T05:28:29.712Z,9.30
2023-01-11T05:31:34.625Z,9.18
2023-01-11T05:34:37.739Z,10.20
2023-01-11T05:37:41.147Z,9.60
2023-01-11T05:40:44.112Z,10.40
2023-01-11T05:44:07.602Z,10.82
2023-01-11T05:47:10.606Z,12.02
2023-01-11T05:50:14.089Z,7.78
2023-01-11T05:53:17.162Z,9.55
2023-01-11T05:56:21.322Z,8.23
2023-01-11T05:59:24.330Z,11.65
2023-01-11T06:02:27.696Z,10.02
2023-01-11T06:05:30.964Z,11.20
2023-01-11T06:08:33.997Z,11.82
2023-01-11T06:11:37.268Z,12.13
2023-01-11T06:14:40.253Z,10.65
2023-01-11T06:17:44.470Z,12.57
2023-01-11T06:20:51.275Z,9.10
2023-01-11T06:23:55.580Z,12.02
2023-01-11T06:26:58.535Z,11.48
2023-01-11T06:30:01.825Z,10.60
2023-01-11T06:33:08.211Z,9.85
2023-01-11T06:36:12.479Z,12.02
2023-01-11T06:39:15.881Z,10.43
2023-01-11T06:42:19.232Z,13.60
2023-01-11T06:45:22.450Z,10.82
2023-01-11T06:48:27.661Z,15.45
2023-01-11T06:51:30.687Z,9.40
2023-01-11T06:54:33.905Z,10.70
2023-01-11T06:57:37.141Z,12.02
2023-01-11T07:00:40.411Z,10.25
2023-01-11T07:03:43.949Z,9.85
2023-01-11T07:06:47.728Z,11.12
2023-01-11T07:09:50.690Z,10.05
2023-01-11T07:12:55.086Z,13.02
2023-01-11T07:15:58.193Z,8.45
2023-01-11T07:19:01.430Z,13.38
2023-01-11T07:22:04.757Z,8.95
2023-01-11T07:25:08.405Z,11.52
2023-01-11T07:28:11.471Z,14.18
2023-01-11T07:31:15.021Z,12.27
2023-01-11T07:34:18.056Z,10.00
2023-01-11T07:37:28.210Z,9.75
2023-01-11T07:40:32.355Z,9.52
2023-01-11T07:43:35.605Z,9.40
2023-01-11T07:46:38.749Z,10.73
2023-01-11T07:49:42.105Z,9.45
2023-01-11T07:52:48.801Z,10.55
2023-01-11T07:55:52.160Z,10.52
2023-01-11T07:58:55.258Z,9.52
2023-01-11T08:01:58.591Z,12.77
2023-01-11T08:05:03.487Z,12.57
2023-01-11T08:08:07.066Z,14.50
2023-01-11T08:11:30.409Z,12.20
2023-01-11T08:14:39.373Z,15.05
2023-01-11T08:17:42.665Z,14.48
2023-01-11T08:20:46.546Z,15.25
2023-01-11T08:23:53.756Z,12.18
2023-01-11T08:26:57.118Z,14.75
2023-01-11T08:30:01.745Z,16.25
2023-01-11T08:33:05.828Z,13.70
2023-01-11T08:39:13.472Z,14.10
2023-01-11T08:42:17.221Z,18.92
2023-01-11T08:45:20.206Z,14.68
2023-01-11T08:48:23.597Z,16.85
2023-01-11T08:51:27.809Z,12.40
2023-01-11T08:54:31.356Z,15.40
2023-01-11T08:57:36.725Z,10.07
2023-01-11T09:00:40.845Z,13.90
2023-01-11T09:03:43.840Z,12.00
2023-01-11T09:06:47.273Z,11.05
2023-01-11T09:09:50.638Z,11.48
2023-01-11T09:12:54.521Z,14.10
2023-01-11T09:15:58.337Z,21.65
2023-01-11T09:19:01.580Z,12.05
2023-01-11T09:22:04.538Z,14.50
2023-01-11T09:25:08.627Z,10.35
2023-01-11T09:28:11.537Z,16.05
2023-01-11T09:31:14.807Z,12.10
2023-01-11T09:34:17.988Z,10.32
2023-01-11T09:37:22.998Z,11.02
2023-01-11T09:40:42.456Z,12.32
2023-01-11T09:43:52.771Z,10.75
2023-01-11T09:47:14.668Z,11.75
2023-01-11T09:50:22.259Z,10.35
2023-01-11T09:53:32.247Z,15.70
2023-01-11T09:56:43.991Z,12.13
2023-01-11T10:00:16.653Z,11.80
2023-01-11T10:03:28.060Z,12.63
2023-01-11T10:07:02.905Z,10.05
2023-01-11T10:18:30.323Z,10.43
2023-01-11T10:21:16.263Z,9.40
2023-01-11T10:24:29.525Z,9.60
2023-01-11T10:27:39.610Z,11.60
2023-01-11T10:31:10.098Z,9.02
2023-01-11T10:34:38.781Z,14.50
2023-01-11T10:38:07.279Z,10.43
2023-01-11T10:41:26.010Z,12.68
2023-01-11T10:44:37.956Z,8.57
2023-01-11T10:47:48.880Z,9.85
2023-01-11T10:51:02.358Z,7.93
2023-01-11T10:54:18.255Z,9.52
2023-01-11T10:57:37.802Z,9.73
2023-01-11T11:00:40.908Z,8.30
2023-01-11T11:03:59.160Z,11.93
2023-01-11T11:07:18.701Z,10.25
2023-01-11T11:10:26.915Z,11.05
2023-01-11T11:13:53.178Z,12.50
2023-01-11T11:17:35.658Z,12.15
2023-01-11T11:20:38.935Z,9.93
2023-01-11T11:23:42.353Z,15.45
2023-01-11T11:26:47.872Z,10.50
2023-01-11T11:29:53.566Z,9.45
2023-01-11T11:33:01.058Z,11.50
2023-01-11T11:36:06.293Z,9.32
2023-01-11T11:39:21.505Z,9.65
2023-01-11T11:42:25.113Z,10.20
2023-01-11T11:45:28.516Z,9.70
2023-01-11T11:48:35.121Z,8.43
2023-01-11T11:51:38.650Z,10.82
2023-01-11T11:54:56.221Z,7.53
2023-01-11T11:58:04.585Z,9.13
2023-01-11T12:01:32.805Z,7.87
2023-01-11T12:04:47.511Z,7.68
2023-01-11T12:07:55.863Z,9.75
2023-01-11T12:11:07.130Z,9.82
2023-01-11T12:14:17.729Z,7.70
2023-01-11T12:17:25.645Z,9.25
2023-01-11T12:20:31.258Z,7.07
2023-01-11T12:23:34.638Z,10.50
2023-01-11T12:27:09.836Z,8.20
2023-01-11T12:30:27.276Z,7.12
2023-01-11T12:33:45.755Z,8.02
2023-01-11T12:37:20.473Z,8.88
2023-01-11T12:40:30.428Z,8.52
2023-01-11T12:43:55.790Z,7.90
2023-01-11T12:47:31.438Z,7.43
2023-01-11T12:51:00.835Z,7.32
2023-01-11T12:54:15.636Z,9.55
2023-01-11T13:00:49.690Z,6.20
2023-01-11T13:04:16.809Z,6.05
2023-01-11T13:07:41.669Z,7.32
2023-01-11T13:11:35.263Z,7.65
2023-01-11T13:14:44.705Z,5.75
2023-01-11T13:17:55.884Z,5.03
2023-01-11T13:21:08.645Z,7.03
2023-01-11T13:24:18.214Z,5.65
2023-01-11T13:27:23.668Z,7.53
2023-01-11T13:30:27.220Z,7.65
2023-01-11T13:33:32.734Z,8.57
2023-01-11T13:36:41.263Z,9.18
2023-01-11T13:39:50.591Z,5.57
2023-01-11T13:42:58.015Z,8.60
2023-01-11T13:46:20.817Z,8.65
2023-01-11T13:49:33.228Z,7.55
2023-01-11T13:52:44.921Z,8.18
2023-01-11T13:56:10.297Z,10.73
2023-01-11T13:59:26.871Z,10.35
2023-01-11T14:02:44.618Z,8.27
2023-01-11T14:06:19.209Z,8.40
2023-01-11T14:09:25.151Z,7.95
2023-01-11T14:12:50.127Z,12.37
2023-01-11T14:15:59.856Z,7.87
2023-01-11T14:19:12.080Z,9.82
2023-01-11T14:22:22.203Z,9.90
2023-01-11T14:25:37.232Z,11.40
2023-01-11T14:29:08.634Z,8.02
2023-01-11T14:32:33.169Z,9.30
2023-01-11T14:35:42.087Z,11.98
2023-01-11T14:39:07.291Z,14.38
2023-01-11T14:42:35.092Z,11.70
2023-01-11T14:46:00.764Z,15.23
2023-01-11T14:49:28.402Z,14.87
2023-01-11T14:52:40.134Z,16.45
2023-01-11T14:55:45.302Z,14.48
2023-01-11T14:59:03.765Z,16.73
2023-01-11T15:02:12.494Z,18.80
2023-01-11T15:05:49.070Z,25.85
2023-01-11T15:08:55.245Z,38.40
2023-01-11T15:12:20.970Z,32.50
2023-01-11T15:15:48.227Z,38.17
2023-01-11T15:18:51.536Z,36.20
2023-01-11T15:21:56.053Z,36.05
2023-01-11T15:25:04.636Z,42.60
2023-01-11T15:28:35.696Z,29.92
2023-01-11T15:32:03.363Z,27.02
2023-01-11T15:35:35.595Z,25.10
2023-01-11T15:39:00.921Z,15.77
2023-01-11T15:42:27.104Z,23.20
2023-01-11T15:46:04.303Z,18.45
2023-01-11T15:49:08.195Z,15.43
2023-01-11T15:52:31.456Z,14.98
2023-01-11T15:55:52.700Z,13.98
2023-01-11T15:59:34.242Z,12.32
2023-01-11T16:02:37.164Z,13.75
2023-01-11T16:06:17.653Z,13.45
2023-01-11T16:09:33.162Z,13.55
2023-01-11T16:12:56.484Z,14.00
2023-01-11T16:16:32.435Z,11.25
2023-01-11T16:22:39.537Z,10.98
2023-01-11T16:25:43.675Z,11.88
2023-01-11T16:28:53.276Z,14.65
2023-01-11T16:32:07.974Z,10.98
2023-01-11T16:35:23.719Z,14.45
2023-01-11T16:38:28.026Z,15.05
2023-01-11T16:41:41.425Z,12.50
2023-01-11T16:45:04.524Z,11.82
2023-01-11T16:48:14.990Z,12.43
2023-01-11T16:51:21.685Z,9.65
2023-01-11T16:54:27.719Z,14.85
2023-01-11T16:57:35.942Z,10.25
2023-01-11T17:00:39.968Z,12.63
2023-01-11T17:03:54.972Z,9.47
2023-01-11T17:07:13.675Z,10.87
2023-01-11T17:10:28.875Z,14.52
2023-01-11T17:13:53.344Z,12.10
2023-01-11T17:17:13.070Z,12.15
2023-01-11T17:20:29.936Z,12.75
2023-01-11T17:23:33.291Z,16.08
2023-01-11T17:26:41.346Z,13.38
2023-01-11T17:29:45.229Z,10.07
2023-01-11T17:32:51.833Z,8.98
2023-01-11T17:35:55.966Z,9.57
2023-01-11T17:39:00.642Z,11.80
2023-01-11T17:42:25.044Z,9.85
2023-01-11T17:45:28.192Z,16.25
2023-01-11T17:48:32.056Z,16.33
2023-01-11T17:51:35.332Z,23.73
2023-01-11T17:54:38.617Z,45.30
2023-01-11T17:57:41.579Z,38.83
2023-01-11T18:00:46.651Z,23.48
2023-01-11T18:03:54.269Z,27.77
2023-01-11T18:07:12.580Z,18.17
2023-01-11T18:10:25.090Z,20.40
2023-01-11T18:13:31.633Z,16.65
2023-01-11T18:16:34.859Z,20.17
2023-01-11T18:19:43.007Z,20.10
2023-01-11T18:23:06.858Z,18.10
2023-01-11T18:26:32.151Z,16.60
2023-01-11T18:32:51.584Z,18.95
2023-01-11T18:36:00.917Z,18.70
2023-01-11T18:39:10.743Z,21.77
2023-01-11T18:42:17.341Z,22.13
2023-01-11T18:45:25.062Z,30.88
2023-01-11T18:48:29.073Z,31.45
2023-01-11T18:51:34.557Z,14.05
2023-01-11T18:54:42.177Z,12.32
2023-01-11T18:57:47.754Z,16.77
2023-01-11T19:00:52.213Z,16.23
2023-01-11T19:03:56.007Z,21.67
2023-01-11T19:07:03.501Z,52.13
2023-01-11T19:10:07.729Z,32.70
2023-01-11T19:13:12.672Z,15.48
2023-01-11T19:16:15.839Z,12.32
2023-01-11T19:19:20.402Z,12.88
2023-01-11T19:22:26.759Z,18.30
2023-01-11T19:25:31.727Z,11.20
2023-01-11T19:28:35.320Z,10.80
2023-01-11T19:31:39.216Z,17.95
2023-01-11T19:34:43.456Z,21.33
2023-01-11T19:37:47.832Z,21.42
2023-01-11T19:40:53.733Z,28.58
2023-01-11T19:43:58.050Z,22.08
2023-01-11T19:47:13.344Z,17.17
2023-01-11T19:50:18.125Z,15.73
2023-01-11T19:53:21.710Z,14.13
2023-01-11T19:56:25.668Z,13.20
2023-01-11T19:59:28.892Z,9.93
2023-01-11T20:02:33.744Z,7.90
2023-01-11T20:05:37.456Z,9.63
2023-01-11T20:08:41.401Z,8.73
2023-01-11T20:11:45.867Z,7.53
2023-01-11T20:14:48.949Z,6.90
2023-01-11T20:17:52.625Z,14.20
2023-01-11T20:20:57.063Z,15.40
2023-01-11T20:24:04.913Z,30.50
2023-01-11T20:27:08.846Z,38.90
2023-01-11T20:30:13.101Z,43.13
2023-01-11T20:33:16.632Z,38.22
2023-01-11T20:36:22.167Z,51.80
2023-01-11T20:39:26.521Z,52.92
2023-01-11T20:42:31.274Z,48.67
2023-01-11T20:45:35.406Z,51.78
2023-01-11T20:48:40.186Z,33.45
2023-01-11T20:51:44.830Z,112.65
2023-01-11T20:54:48.215Z,156.93
2023-01-11T20:57:55.784Z,123.15
2023-01-11T21:01:09.783Z,84.80
2023-01-11T21:04:13.591Z,58.95
2023-01-11T21:07:16.986Z,49.42
2023-01-11T21:10:19.906Z,41.60
2023-01-11T21:13:23.591Z,35.03
2023-01-11T21:16:28.412Z,29.17
2023-01-11T21:19:32.787Z,27.27
2023-01-11T21:22:35.679Z,25.67
2023-01-11T21:25:39.957Z,23.87
2023-01-11T21:28:43.677Z,20.05
2023-01-11T21:31:47.103Z,22.37
2023-01-11T21:34:50.204Z,16.37
2023-01-11T21:37:53.516Z,16.35
2023-01-11T21:40:56.418Z,17.00
2023-01-11T21:43:59.741Z,17.02
2023-01-11T21:47:05.974Z,17.25
2023-01-11T21:50:09.776Z,16.95
2023-01-11T21:53:12.712Z,13.27
2023-01-11T21:56:15.957Z,11.45
2023-01-11T21:59:20.506Z,14.35
2023-01-11T22:02:23.699Z,16.50
2023-01-11T22:05:27.019Z,13.82
2023-01-11T22:08:31.575Z,13.30
2023-01-11T22:11:34.838Z,11.63
2023-01-11T22:14:38.693Z,7.20
2023-01-11T22:17:41.937Z,13.07
2023-01-11T22:20:44.920Z,11.50
2023-01-11T22:23:48.441Z,12.98
2023-01-11T22:26:51.410Z,13.77
2023-01-11T22:29:55.001Z,10.43
2023-01-11T22:32:59.820Z,10.43
2023-01-11T22:36:04.638Z,9.75
2023-01-11T22:39:07.756Z,11.30
2023-01-11T22:42:10.978Z,8.15
2023-01-11T22:45:13.918Z,15.55
2023-01-11T22:48:17.307Z,11.98
2023-01-11T22:51:23.564Z,12.73
2023-01-11T22:54:26.817Z,23.75
2023-01-11T22:57:32.159Z,29.73
2023-01-11T23:00:37.060Z,33.65
2023-01-11T23:03:42.163Z,51.95
2023-01-11T23:09:48.992Z,58.83
2023-01-11T23:13:10.705Z,55.85
2023-01-11T23:16:15.025Z,34.85
2023-01-11T23:19:20.399Z,37.30
2023-01-11T23:22:23.302Z,45.20
2023-01-11T23:25:26.632Z,48.60
2023-01-11T23:28:30.822Z,32.50
2023-01-11T23:31:35.475Z,42.30
2023-01-11T23:34:38.725Z,39.47
2023-01-11T23:37:42.034Z,36.38
2023-01-11T23:41:03.811Z,34.13
2023-01-11T23:44:12.403Z,24.23
2023-01-11T23:47:21.253Z,34.65
2023-01-11T23:50:24.567Z,33.63
2023-01-11T23:53:27.576Z,32.17
2023-01-11T23:56:31.893Z,26.58
2023-01-11T23:59:34.837Z,30.62
